sensor_id;sensor_type;location;lat;lon;timestamp;pressure;altitude;pressure_sealevel;temperature;humidity
51528;BME280;37612;51.768;21.590;2023-04-25T00:00:39;98803.15;;;12.41;70.52
51528;BME280;37612;51.768;21.590;2023-04-25T00:04:55;98798.29;;;12.34;70.78
51528;BME280;37612;51.768;21.590;2023-04-25T00:08:59;98797.85;;;12.28;70.75
51528;BME280;37612;51.768;21.590;2023-04-25T00:13:02;98791.70;;;12.23;70.40
51528;BME280;37612;51.768;21.590;2023-04-25T00:17:04;98777.45;;;12.18;71.07
51528;BME280;37612;51.768;21.590;2023-04-25T00:21:08;98776.36;;;12.16;71.29
51528;BME280;37612;51.768;21.590;2023-04-25T00:25:16;98765.88;;;12.08;71.59
51528;BME280;37612;51.768;21.590;2023-04-25T00:29:18;98767.54;;;12.00;71.94
51528;BME280;37612;51.768;21.590;2023-04-25T00:33:21;98764.79;;;11.91;71.70
51528;BME280;37612;51.768;21.590;2023-04-25T00:37:23;98761.83;;;11.82;72.07
51528;BME280;37612;51.768;21.590;2023-04-25T00:41:25;98754.84;;;11.80;72.18
51528;BME280;37612;51.768;21.590;2023-04-25T00:45:29;98746.71;;;11.72;72.71
51528;BME280;37612;51.768;21.590;2023-04-25T00:49:31;98748.30;;;11.61;72.89
51528;BME280;37612;51.768;21.590;2023-04-25T00:53:33;98744.67;;;11.48;73.24
51528;BME280;37612;51.768;21.590;2023-04-25T00:57:35;98741.27;;;11.35;73.44
51528;BME280;37612;51.768;21.590;2023-04-25T01:01:38;98738.08;;;11.24;73.40
51528;BME280;37612;51.768;21.590;2023-04-25T01:05:41;98740.02;;;11.14;73.80
51528;BME280;37612;51.768;21.590;2023-04-25T01:09:43;98735.61;;;11.01;74.09
51528;BME280;37612;51.768;21.590;2023-04-25T01:13:45;98733.55;;;10.90;74.54
51528;BME280;37612;51.768;21.590;2023-04-25T01:17:49;98733.29;;;10.79;74.69
51528;BME280;37612;51.768;21.590;2023-04-25T01:21:51;98737.95;;;10.65;74.64
51528;BME280;37612;51.768;21.590;2023-04-25T01:25:53;98734.83;;;10.51;74.66
51528;BME280;37612;51.768;21.590;2023-04-25T01:29:56;98733.36;;;10.41;75.42
51528;BME280;37612;51.768;21.590;2023-04-25T01:33:58;98731.13;;;10.36;75.80
51528;BME280;37612;51.768;21.590;2023-04-25T01:38:00;98732.77;;;10.29;76.06
51528;BME280;37612;51.768;21.590;2023-04-25T01:42:03;98728.63;;;10.28;75.79
51528;BME280;37612;51.768;21.590;2023-04-25T01:46:07;98727.66;;;10.29;75.79
51528;BME280;37612;51.768;21.590;2023-04-25T01:50:10;98723.75;;;10.29;76.33
51528;BME280;37612;51.768;21.590;2023-04-25T01:54:13;98724.58;;;10.27;76.69
51528;BME280;37612;51.768;21.590;2023-04-25T01:58:18;98728.75;;;10.22;77.04
51528;BME280;37612;51.768;21.590;2023-04-25T02:02:20;98731.74;;;10.14;76.98
51528;BME280;37612;51.768;21.590;2023-04-25T02:06:22;98730.73;;;10.06;76.73
51528;BME280;37612;51.768;21.590;2023-04-25T02:10:24;98728.95;;;9.95;77.29
51528;BME280;37612;51.768;21.590;2023-04-25T02:14:26;98728.56;;;9.88;77.40
51528;BME280;37612;51.768;21.590;2023-04-25T02:18:28;98728.48;;;9.84;77.86
51528;BME280;37612;51.768;21.590;2023-04-25T02:22:30;98732.92;;;9.90;77.55
51528;BME280;37612;51.768;21.590;2023-04-25T02:26:32;98731.42;;;9.98;78.10
51528;BME280;37612;51.768;21.590;2023-04-25T02:30:34;98732.75;;;10.08;78.54
51528;BME280;37612;51.768;21.590;2023-04-25T02:34:36;98730.78;;;10.14;78.72
51528;BME280;37612;51.768;21.590;2023-04-25T02:38:39;98728.84;;;10.17;78.92
51528;BME280;37612;51.768;21.590;2023-04-25T02:42:41;98726.34;;;10.17;78.32
51528;BME280;37612;51.768;21.590;2023-04-25T02:46:44;98724.23;;;10.20;78.85
51528;BME280;37612;51.768;21.590;2023-04-25T02:50:46;98728.51;;;10.25;78.13
51528;BME280;37612;51.768;21.590;2023-04-25T02:54:48;98733.42;;;10.23;78.68
51528;BME280;37612;51.768;21.590;2023-04-25T02:58:50;98741.88;;;10.22;79.58
51528;BME280;37612;51.768;21.590;2023-04-25T03:02:53;98739.14;;;10.27;79.92
51528;BME280;37612;51.768;21.590;2023-04-25T03:06:55;98733.27;;;10.32;79.75
51528;BME280;37612;51.768;21.590;2023-04-25T03:10:57;98725.38;;;10.34;79.58
51528;BME280;37612;51.768;21.590;2023-04-25T03:15:00;98726.47;;;10.31;79.49
51528;BME280;37612;51.768;21.590;2023-04-25T03:19:02;98730.01;;;10.30;80.09
51528;BME280;37612;51.768;21.590;2023-04-25T03:23:05;98737.87;;;10.32;80.35
51528;BME280;37612;51.768;21.590;2023-04-25T03:27:07;98736.81;;;10.30;80.38
51528;BME280;37612;51.768;21.590;2023-04-25T03:31:09;98735.87;;;10.27;80.48
51528;BME280;37612;51.768;21.590;2023-04-25T03:35:11;98737.38;;;10.28;80.68
51528;BME280;37612;51.768;21.590;2023-04-25T03:39:13;98729.79;;;10.30;80.80
51528;BME280;37612;51.768;21.590;2023-04-25T03:43:15;98727.42;;;10.30;80.88
51528;BME280;37612;51.768;21.590;2023-04-25T03:47:17;98736.52;;;10.28;81.34
51528;BME280;37612;51.768;21.590;2023-04-25T03:51:19;98743.08;;;10.29;80.98
51528;BME280;37612;51.768;21.590;2023-04-25T03:55:23;98746.57;;;10.32;81.25
51528;BME280;37612;51.768;21.590;2023-04-25T03:59:25;98751.76;;;10.29;81.11
51528;BME280;37612;51.768;21.590;2023-04-25T04:03:27;98753.36;;;10.24;81.54
51528;BME280;37612;51.768;21.590;2023-04-25T04:07:29;98751.64;;;10.20;81.66
51528;BME280;37612;51.768;21.590;2023-04-25T04:11:33;98754.79;;;10.20;81.90
51528;BME280;37612;51.768;21.590;2023-04-25T04:15:39;98759.84;;;10.24;82.12
51528;BME280;37612;51.768;21.590;2023-04-25T04:19:41;98757.48;;;10.23;81.88
51528;BME280;37612;51.768;21.590;2023-04-25T04:23:43;98766.38;;;10.19;82.32
51528;BME280;37612;51.768;21.590;2023-04-25T04:27:45;98774.90;;;10.19;82.38
51528;BME280;37612;51.768;21.590;2023-04-25T04:31:49;98775.21;;;10.20;82.48
51528;BME280;37612;51.768;21.590;2023-04-25T04:35:52;98778.88;;;10.23;82.44
51528;BME280;37612;51.768;21.590;2023-04-25T04:39:55;98777.75;;;10.24;82.92
51528;BME280;37612;51.768;21.590;2023-04-25T04:43:57;98777.27;;;10.26;82.98
51528;BME280;37612;51.768;21.590;2023-04-25T04:48:01;98772.79;;;10.29;82.93
51528;BME280;37612;51.768;21.590;2023-04-25T04:52:07;98775.96;;;10.32;82.59
51528;BME280;37612;51.768;21.590;2023-04-25T04:56:13;98769.98;;;10.34;83.27
51528;BME280;37612;51.768;21.590;2023-04-25T05:00:18;98765.41;;;10.38;83.17
51528;BME280;37612;51.768;21.590;2023-04-25T05:04:22;98767.96;;;10.46;83.02
51528;BME280;37612;51.768;21.590;2023-04-25T05:08:24;98762.82;;;10.54;83.79
51528;BME280;37612;51.768;21.590;2023-04-25T05:12:26;98766.50;;;10.61;83.98
51528;BME280;37612;51.768;21.590;2023-04-25T05:16:28;98758.52;;;10.70;83.89
51528;BME280;37612;51.768;21.590;2023-04-25T05:20:30;98759.45;;;10.79;84.87
51528;BME280;37612;51.768;21.590;2023-04-25T05:24:32;98756.98;;;10.89;85.45
51528;BME280;37612;51.768;21.590;2023-04-25T05:28:34;98759.56;;;11.00;87.18
51528;BME280;37612;51.768;21.590;2023-04-25T05:32:36;98759.93;;;11.06;87.77
51528;BME280;37612;51.768;21.590;2023-04-25T05:36:39;98767.77;;;11.05;87.55
51528;BME280;37612;51.768;21.590;2023-04-25T05:40:41;98775.56;;;11.11;86.77
51528;BME280;37612;51.768;21.590;2023-04-25T05:44:44;98779.29;;;11.18;86.58
51528;BME280;37612;51.768;21.590;2023-04-25T05:48:46;98776.38;;;11.20;87.89
51528;BME280;37612;51.768;21.590;2023-04-25T05:52:50;98780.05;;;11.17;88.10
51528;BME280;37612;51.768;21.590;2023-04-25T05:56:52;98779.67;;;11.12;87.98
51528;BME280;37612;51.768;21.590;2023-04-25T06:00:55;98775.33;;;11.09;88.46
51528;BME280;37612;51.768;21.590;2023-04-25T06:04:57;98768.38;;;11.04;89.13
51528;BME280;37612;51.768;21.590;2023-04-25T06:08:59;98769.88;;;11.04;88.53
51528;BME280;37612;51.768;21.590;2023-04-25T06:13:02;98769.81;;;11.05;88.29
51528;BME280;37612;51.768;21.590;2023-04-25T06:17:04;98768.57;;;11.06;88.84
51528;BME280;37612;51.768;21.590;2023-04-25T06:21:10;98773.94;;;11.04;89.12
51528;BME280;37612;51.768;21.590;2023-04-25T06:25:12;98770.08;;;11.00;89.46
51528;BME280;37612;51.768;21.590;2023-04-25T06:29:14;98772.58;;;11.00;90.15
51528;BME280;37612;51.768;21.590;2023-04-25T06:33:16;98773.36;;;10.96;89.70
51528;BME280;37612;51.768;21.590;2023-04-25T06:37:18;98776.20;;;10.95;90.06
51528;BME280;37612;51.768;21.590;2023-04-25T06:41:20;98776.41;;;10.96;91.10
51528;BME280;37612;51.768;21.590;2023-04-25T06:45:22;98774.95;;;10.93;91.44
51528;BME280;37612;51.768;21.590;2023-04-25T06:49:24;98783.21;;;10.90;90.96
51528;BME280;37612;51.768;21.590;2023-04-25T06:53:26;98777.42;;;10.92;91.08
51528;BME280;37612;51.768;21.590;2023-04-25T06:57:28;98781.05;;;10.87;90.85
51528;BME280;37612;51.768;21.590;2023-04-25T07:01:30;98780.82;;;10.88;90.83
51528;BME280;37612;51.768;21.590;2023-04-25T07:05:32;98790.16;;;10.89;90.71
51528;BME280;37612;51.768;21.590;2023-04-25T07:09:35;98793.82;;;10.86;91.20
51528;BME280;37612;51.768;21.590;2023-04-25T07:13:37;98797.34;;;10.87;90.64
51528;BME280;37612;51.768;21.590;2023-04-25T07:17:50;98801.90;;;10.89;90.70
51528;BME280;37612;51.768;21.590;2023-04-25T07:21:53;98805.80;;;10.89;90.41
51528;BME280;37612;51.768;21.590;2023-04-25T07:25:55;98807.14;;;10.88;90.63
51528;BME280;37612;51.768;21.590;2023-04-25T07:29:57;98806.11;;;10.84;90.82
51528;BME280;37612;51.768;21.590;2023-04-25T07:33:59;98812.29;;;10.75;90.76
51528;BME280;37612;51.768;21.590;2023-04-25T07:38:02;98813.10;;;10.74;90.46
51528;BME280;37612;51.768;21.590;2023-04-25T07:42:05;98814.27;;;10.73;90.63
51528;BME280;37612;51.768;21.590;2023-04-25T07:46:14;98821.56;;;10.69;90.21
51528;BME280;37612;51.768;21.590;2023-04-25T07:50:19;98837.48;;;10.68;90.52
51528;BME280;37612;51.768;21.590;2023-04-25T07:54:22;98845.50;;;10.67;90.42
51528;BME280;37612;51.768;21.590;2023-04-25T07:58:24;98849.63;;;10.64;90.32
51528;BME280;37612;51.768;21.590;2023-04-25T08:02:26;98849.27;;;10.62;90.54
51528;BME280;37612;51.768;21.590;2023-04-25T08:06:30;98845.20;;;10.58;90.58
51528;BME280;37612;51.768;21.590;2023-04-25T08:10:33;98838.11;;;10.55;91.27
51528;BME280;37612;51.768;21.590;2023-04-25T08:14:36;98835.62;;;10.53;91.77
51528;BME280;37612;51.768;21.590;2023-04-25T08:19:18;98834.69;;;10.51;92.23
51528;BME280;37612;51.768;21.590;2023-04-25T08:23:22;98839.64;;;10.51;92.00
51528;BME280;37612;51.768;21.590;2023-04-25T08:27:28;98839.81;;;10.57;92.08
51528;BME280;37612;51.768;21.590;2023-04-25T08:31:30;98838.20;;;10.59;92.71
51528;BME280;37612;51.768;21.590;2023-04-25T08:35:33;98835.11;;;10.56;92.76
51528;BME280;37612;51.768;21.590;2023-04-25T08:39:36;98836.35;;;10.56;93.43
51528;BME280;37612;51.768;21.590;2023-04-25T08:43:42;98840.33;;;10.51;93.77
51528;BME280;37612;51.768;21.590;2023-04-25T08:47:47;98841.96;;;10.47;93.64
51528;BME280;37612;51.768;21.590;2023-04-25T08:51:55;98841.25;;;10.42;93.91
51528;BME280;37612;51.768;21.590;2023-04-25T08:56:03;98848.76;;;10.37;93.91
51528;BME280;37612;51.768;21.590;2023-04-25T09:00:06;98855.86;;;10.36;93.94
51528;BME280;37612;51.768;21.590;2023-04-25T09:04:11;98855.27;;;10.36;94.08
51528;BME280;37612;51.768;21.590;2023-04-25T09:08:33;98861.15;;;10.33;94.61
51528;BME280;37612;51.768;21.590;2023-04-25T09:12:36;98859.64;;;10.28;95.11
51528;BME280;37612;51.768;21.590;2023-04-25T09:21:10;98866.09;;;10.13;95.84
51528;BME280;37612;51.768;21.590;2023-04-25T09:25:13;98869.23;;;10.03;96.44
51528;BME280;37612;51.768;21.590;2023-04-25T09:29:19;98880.71;;;9.90;95.80
51528;BME280;37612;51.768;21.590;2023-04-25T09:33:33;98884.03;;;9.88;95.54
51528;BME280;37612;51.768;21.590;2023-04-25T09:37:46;98888.63;;;9.84;95.65
51528;BME280;37612;51.768;21.590;2023-04-25T09:42:51;98895.79;;;9.81;95.57
51528;BME280;37612;51.768;21.590;2023-04-25T09:46:53;98892.73;;;9.81;95.65
51528;BME280;37612;51.768;21.590;2023-04-25T09:51:09;98896.86;;;9.76;95.91
51528;BME280;37612;51.768;21.590;2023-04-25T09:55:12;98899.77;;;9.66;95.96
51528;BME280;37612;51.768;21.590;2023-04-25T09:59:14;98897.70;;;9.63;96.21
51528;BME280;37612;51.768;21.590;2023-04-25T10:03:17;98897.62;;;9.55;96.25
51528;BME280;37612;51.768;21.590;2023-04-25T10:08:05;98900.40;;;9.48;96.69
51528;BME280;37612;51.768;21.590;2023-04-25T10:12:14;98905.30;;;9.46;96.51
51528;BME280;37612;51.768;21.590;2023-04-25T10:16:16;98906.39;;;9.40;96.83
51528;BME280;37612;51.768;21.590;2023-04-25T10:20:19;98909.80;;;9.31;96.75
51528;BME280;37612;51.768;21.590;2023-04-25T10:24:21;98911.89;;;9.26;96.98
51528;BME280;37612;51.768;21.590;2023-04-25T10:28:23;98913.48;;;9.20;97.18
51528;BME280;37612;51.768;21.590;2023-04-25T10:32:25;98909.82;;;9.16;97.55
51528;BME280;37612;51.768;21.590;2023-04-25T10:36:38;98913.73;;;9.12;97.42
51528;BME280;37612;51.768;21.590;2023-04-25T10:40:40;98912.53;;;9.07;97.39
51528;BME280;37612;51.768;21.590;2023-04-25T10:45:02;98915.20;;;9.05;97.82
51528;BME280;37612;51.768;21.590;2023-04-25T10:49:08;98912.01;;;8.98;98.02
51528;BME280;37612;51.768;21.590;2023-04-25T10:53:14;98913.13;;;8.93;97.91
51528;BME280;37612;51.768;21.590;2023-04-25T10:57:46;98916.00;;;8.93;98.11
51528;BME280;37612;51.768;21.590;2023-04-25T11:01:52;98914.98;;;8.93;98.10
51528;BME280;37612;51.768;21.590;2023-04-25T11:05:59;98916.85;;;8.94;97.95
51528;BME280;37612;51.768;21.590;2023-04-25T11:10:04;98917.07;;;9.00;98.46
51528;BME280;37612;51.768;21.590;2023-04-25T11:14:06;98922.44;;;9.02;98.50
51528;BME280;37612;51.768;21.590;2023-04-25T11:18:08;98922.34;;;9.03;99.28
51528;BME280;37612;51.768;21.590;2023-04-25T11:22:10;98915.57;;;9.07;99.32
51528;BME280;37612;51.768;21.590;2023-04-25T11:26:14;98914.25;;;9.05;99.92
51528;BME280;37612;51.768;21.590;2023-04-25T11:30:17;98915.63;;;8.99;99.86
51528;BME280;37612;51.768;21.590;2023-04-25T11:34:19;98919.35;;;9.01;99.79
51528;BME280;37612;51.768;21.590;2023-04-25T11:38:25;98922.22;;;9.01;100.00
51528;BME280;37612;51.768;21.590;2023-04-25T11:42:33;98919.83;;;8.97;100.00
51528;BME280;37612;51.768;21.590;2023-04-25T11:46:35;98920.21;;;9.00;99.95
51528;BME280;37612;51.768;21.590;2023-04-25T11:50:39;98923.51;;;9.04;100.00
51528;BME280;37612;51.768;21.590;2023-04-25T11:54:44;98921.97;;;9.06;100.00
51528;BME280;37612;51.768;21.590;2023-04-25T11:59:05;98918.61;;;9.02;100.00
51528;BME280;37612;51.768;21.590;2023-04-25T12:03:09;98914.45;;;8.89;100.00
51528;BME280;37612;51.768;21.590;2023-04-25T12:07:12;98919.94;;;8.89;100.00
51528;BME280;37612;51.768;21.590;2023-04-25T12:11:21;98912.13;;;8.93;100.00
51528;BME280;37612;51.768;21.590;2023-04-25T12:15:24;98911.95;;;8.92;100.00
51528;BME280;37612;51.768;21.590;2023-04-25T12:19:35;98915.79;;;8.97;100.00
51528;BME280;37612;51.768;21.590;2023-04-25T12:23:38;98914.67;;;9.02;100.00
51528;BME280;37612;51.768;21.590;2023-04-25T12:27:41;98915.31;;;9.04;100.00
51528;BME280;37612;51.768;21.590;2023-04-25T12:31:43;98913.81;;;9.07;100.00
51528;BME280;37612;51.768;21.590;2023-04-25T12:35:46;98916.31;;;9.09;100.00
51528;BME280;37612;51.768;21.590;2023-04-25T12:39:49;98911.52;;;9.07;100.00
51528;BME280;37612;51.768;21.590;2023-04-25T12:43:52;98909.19;;;9.14;100.00
51528;BME280;37612;51.768;21.590;2023-04-25T12:47:54;98909.45;;;9.17;100.00
51528;BME280;37612;51.768;21.590;2023-04-25T12:51:56;98899.96;;;9.18;100.00
51528;BME280;37612;51.768;21.590;2023-04-25T12:55:58;98892.61;;;9.23;100.00
51528;BME280;37612;51.768;21.590;2023-04-25T13:00:01;98894.30;;;9.33;99.99
51528;BME280;37612;51.768;21.590;2023-04-25T13:04:03;98887.95;;;9.39;99.99
51528;BME280;37612;51.768;21.590;2023-04-25T13:08:05;98890.60;;;9.48;99.91
51528;BME280;37612;51.768;21.590;2023-04-25T13:12:07;98886.58;;;9.55;99.36
51528;BME280;37612;51.768;21.590;2023-04-25T13:16:09;98884.92;;;9.59;98.39
51528;BME280;37612;51.768;21.590;2023-04-25T13:20:12;98881.39;;;9.63;98.55
51528;BME280;37612;51.768;21.590;2023-04-25T13:24:15;98878.83;;;9.64;98.02
51528;BME280;37612;51.768;21.590;2023-04-25T13:28:17;98876.73;;;9.67;97.79
51528;BME280;37612;51.768;21.590;2023-04-25T13:32:19;98877.92;;;9.66;97.50
51528;BME280;37612;51.768;21.590;2023-04-25T13:36:22;98878.13;;;9.64;97.06
51528;BME280;37612;51.768;21.590;2023-04-25T13:40:24;98879.57;;;9.65;96.78
51528;BME280;37612;51.768;21.590;2023-04-25T13:44:26;98878.84;;;9.64;95.79
51528;BME280;37612;51.768;21.590;2023-04-25T13:48:28;98873.50;;;9.62;95.52
51528;BME280;37612;51.768;21.590;2023-04-25T13:52:30;98875.41;;;9.67;95.03
51528;BME280;37612;51.768;21.590;2023-04-25T13:56:32;98877.33;;;9.67;94.05
51528;BME280;37612;51.768;21.590;2023-04-25T14:00:38;98875.36;;;9.68;94.35
51528;BME280;37612;51.768;21.590;2023-04-25T14:04:42;98877.73;;;9.70;93.90
51528;BME280;37612;51.768;21.590;2023-04-25T14:08:44;98882.44;;;9.69;93.10
51528;BME280;37612;51.768;21.590;2023-04-25T14:12:46;98883.35;;;9.54;92.51
51528;BME280;37612;51.768;21.590;2023-04-25T14:16:49;98887.21;;;9.31;92.79
51528;BME280;37612;51.768;21.590;2023-04-25T14:20:51;98891.56;;;9.15;93.11
51528;BME280;37612;51.768;21.590;2023-04-25T14:24:53;98887.52;;;9.13;93.33
51528;BME280;37612;51.768;21.590;2023-04-25T14:28:56;98889.43;;;9.06;93.53
51528;BME280;37612;51.768;21.590;2023-04-25T14:32:58;98887.73;;;9.03;93.75
51528;BME280;37612;51.768;21.590;2023-04-25T14:37:00;98890.55;;;9.00;94.03
51528;BME280;37612;51.768;21.590;2023-04-25T14:41:03;98890.83;;;8.99;94.22
51528;BME280;37612;51.768;21.590;2023-04-25T14:45:07;98892.20;;;8.99;94.44
51528;BME280;37612;51.768;21.590;2023-04-25T14:49:18;98894.86;;;8.93;94.56
51528;BME280;37612;51.768;21.590;2023-04-25T14:53:20;98896.52;;;8.88;94.43
51528;BME280;37612;51.768;21.590;2023-04-25T14:57:22;98892.69;;;8.84;94.35
51528;BME280;37612;51.768;21.590;2023-04-25T15:01:24;98893.64;;;8.75;94.54
51528;BME280;37612;51.768;21.590;2023-04-25T15:05:26;98890.86;;;8.76;94.40
51528;BME280;37612;51.768;21.590;2023-04-25T15:09:28;98889.06;;;8.76;95.03
51528;BME280;37612;51.768;21.590;2023-04-25T15:13:31;98890.75;;;8.74;95.12
51528;BME280;37612;51.768;21.590;2023-04-25T15:17:33;98895.71;;;8.75;95.49
51528;BME280;37612;51.768;21.590;2023-04-25T15:21:36;98893.41;;;8.65;95.38
51528;BME280;37612;51.768;21.590;2023-04-25T15:25:38;98898.16;;;8.63;96.03
51528;BME280;37612;51.768;21.590;2023-04-25T15:29:40;98894.58;;;8.65;96.09
51528;BME280;37612;51.768;21.590;2023-04-25T15:33:42;98894.26;;;8.60;96.34
51528;BME280;37612;51.768;21.590;2023-04-25T15:37:44;98892.07;;;8.56;96.26
51528;BME280;37612;51.768;21.590;2023-04-25T15:41:46;98890.38;;;8.56;96.55
51528;BME280;37612;51.768;21.590;2023-04-25T15:45:49;98895.32;;;8.53;96.46
51528;BME280;37612;51.768;21.590;2023-04-25T15:49:52;98893.66;;;8.46;96.66
51528;BME280;37612;51.768;21.590;2023-04-25T15:53:58;98900.15;;;8.44;97.28
51528;BME280;37612;51.768;21.590;2023-04-25T15:58:01;98896.85;;;8.43;97.15
51528;BME280;37612;51.768;21.590;2023-04-25T16:02:06;98900.34;;;8.41;97.08
51528;BME280;37612;51.768;21.590;2023-04-25T16:06:09;98901.94;;;8.41;97.32
51528;BME280;37612;51.768;21.590;2023-04-25T16:10:31;98900.61;;;8.44;97.41
51528;BME280;37612;51.768;21.590;2023-04-25T16:14:34;98900.82;;;8.41;98.17
51528;BME280;37612;51.768;21.590;2023-04-25T16:18:36;98902.02;;;8.37;98.33
51528;BME280;37612;51.768;21.590;2023-04-25T16:22:39;98901.84;;;8.34;98.70
51528;BME280;37612;51.768;21.590;2023-04-25T16:26:41;98909.02;;;8.31;99.24
51528;BME280;37612;51.768;21.590;2023-04-25T19:16:01;99083.33;;;6.75;100.00
51528;BME280;37612;51.768;21.590;2023-04-25T21:06:00;99093.91;;;6.51;100.00
51528;BME280;37612;51.768;21.590;2023-04-25T22:39:19;99098.17;;;6.57;100.00
51528;BME280;37612;51.768;21.590;2023-04-25T23:28:02;99098.33;;;6.73;100.00
51528;BME280;37612;51.768;21.590;2023-04-25T23:32:29;99098.84;;;6.77;100.00
51528;BME280;37612;51.768;21.590;2023-04-25T23:46:14;99103.15;;;6.84;100.00
51528;BME280;37612;51.768;21.590;2023-04-25T23:50:57;99101.20;;;6.84;100.00
51528;BME280;37612;51.768;21.590;2023-04-25T23:56:05;99102.47;;;6.82;100.00
